메인 페이지
METAR-TAF:

METAR-TAF

공항 :

공군기지

린셰핑, 스웨덴

위도: 58-24N, 경도: 015-31E, 고도: 93m

현재 날씨관측

예보는 24분 전, 07:50시(UTC)에 발표되었습니다.
10kt
온도 16°C
습도 82%
기압 1013 hPa
시정 10km 이상
고도 1800ft 상공 구름 보통
고도 2500ft 상공 구름 보통
고도 20000ft 상공 구름 많음

METAR: ESCF 230750Z 26010KT 9999 SCT018 SCT025 BKN200 16/13 Q1013

시각: 10:14 (08:14 UTC)

예보

예보는 2 시간 29분 전, 05:45시(UTC)에 발표되었습니다.
예보 대상 시간: 23일 06시부터 23일 14시까지 (UTC)
10kt
시정 10km 이상
고도 1500ft 상공 구름 많음
전환 중
23일 06시부터 23일 08시까지 (UTC)
고도 2000ft 상공 구름 보통

TAF: ESCF 230545Z 2306/2314 27010KT 9999 BKN015 BECMG 2306/2308 SCT020 RMK MIL

4,000개 이상의 공항 관측 자료 및 예보 (METAR 및 TAF 보고).

지도상에서 검색 가능한 기상관측소가 노란 점과 빨간 점으로 표시되어 있습니다.

기상관측소 명을 보려면 표시 위로 마우스를 이동하세요.

날씨 관측과 예보를 보려면 클릭하세요.

지도 변경 : 확대하려면 엑스 표시가 있는 녹색 버튼, 축소하려면 빼기 표시가 있는 녹색 버튼, 다음 페이지의 지도를 보려면 녹색 화살표를 클릭하세요.


METAR-TAF: